Search for airport 
image banner adimage banner adimage banner ad
image banner ad

S51 - Andy Mc Beth

Located in Klamath Glen, United States

ICAO - S51, IATA -

Data provided by Airmate  

General information

Coordinates: N41°30'43" W123°59'44"
Elevation is 42 feet MSL.
Magnetic variation is 18° East
View others Airports in California

Operational data

Special qualification required
Current time UTC:
Current local time:
Weather at : KCEC - Jack Mc Namara Field ( 36 km )
METAR: KCEC 270556Z AUTO 00000KT 8SM OVC007 13/11 A2995 RMK AO2 SLP144 T01280111 10139 20117 51013
TAF: KCEC 270556Z 2706/2806 15007KT 6SM BR SCT003 BKN008 FM270900 VRB05KT 2SM BR OVC003 FM271200 18004KT 1/2SM FG OVC002 FM271800 18006KT 5SM BR HZ BKN004 FM280400 VRB05KT 2SM BR OVC003
View NOTAMs / SUP AIP / TFR affecting this airport [VIEW]
Communications frequencies: [VIEW]

Runways:

RWY identifierQFULength (ft)Width (ft)SurfaceLDA (ft)
11240050ASPH
29240050ASPH

Airport contact information

Address: Klamath Glen United States

Satellite view of S51